aviador You're here:

PAQT Decoded Metar

NUIQSUT in AK, USA
Report Time2018-07-21 18:34:00
UTC Time2018-07-21 18:59:02
Flight Rules vfr VFR
Wind250° at 04 kt
W.Decomp.*RWY 23: 4.0 kt HW 0.1 kt LCW
W.Rank250° ranks 10
Current wind is below 250° avg. (10.3)
Visibility9999 m
Phenomena:N/A
Clouds:Few 021 Hf
Overcast 050 Hf
Expected CloudBase > 1,600 ft AGL from Temp-Dew spread
Ceiling5,000 ft
Temp13°C (ISA -2)
Dew Point09°C (77% RH)
AAT11.4°C
QNH1023 hPa
Density Alt-371 ft
Elevation39 ft
Report Wrong Elevation
Raw Report
PAQT 211834Z AUTO 25004KT 10SM FEW021 OVC050 13/09 A3022=

Extra information for PAQT:More info

Metar Taf Metar & Taf Last 4 Metars F.Rules Stats Wind Profile Meteogram Temp Stats Airport Information Weather charts Add Link Nearby VenuesMetar ALERT Operation Metar Decoded Social comments

AIRNAV info for PAQT